Time;durP1;ratioP1;P1;durP2;ratioP2;P2;SDS_P1;SDS_P2;PMS_P1;PMS_P2;Temp;Humidity;BMP_temperature;BMP_pressure;BME280_temperature;BME280_humidity;BME280_pressure;Samples;Min_cycle;Max_cycle;Signal;HPM_P1;HPM_P2
2022/07/28 00:02:13;;;;;;;0.85;0.55;;;;;21.20;101908.00;;;;5049878;28;20195;-76
2022/07/28 00:04:42;;;;;;;2.83;0.73;;;;;21.10;101903.00;;;;5049568;28;20227;-77
2022/07/28 00:07:09;;;;;;;3.03;0.70;;;;;21.10;101903.00;;;;5050183;28;20211;-77
2022/07/28 00:09:36;;;;;;;1.70;0.82;;;;;21.10;101916.00;;;;5050019;28;20208;-77
2022/07/28 00:12:04;;;;;;;1.42;0.70;;;;;21.10;101910.00;;;;5038844;28;20199;-77
2022/07/28 00:14:31;;;;;;;0.32;0.30;;;;;21.10;101916.00;;;;5049585;28;20195;-77
2022/07/28 00:16:59;;;;;;;2.53;0.98;;;;;21.10;101920.00;;;;5045569;28;20197;-76
2022/07/28 00:19:26;;;;;;;1.10;0.57;;;;;21.10;101914.00;;;;5042490;28;20200;-76
2022/07/28 00:21:55;;;;;;;4.13;0.90;;;;;21.00;101919.00;;;;5049983;28;20567;-77
2022/07/28 00:24:23;;;;;;;2.53;0.70;;;;;21.00;101911.00;;;;5033091;28;20702;-77
2022/07/28 00:26:50;;;;;;;3.30;0.60;;;;;21.00;101910.00;;;;5049839;28;20281;-77
2022/07/28 00:29:17;;;;;;;1.50;0.60;;;;;21.00;101905.00;;;;5049470;28;20862;-77
2022/07/28 00:31:45;;;;;;;1.60;0.75;;;;;21.00;101912.00;;;;5049704;28;20215;-77
2022/07/28 00:34:13;;;;;;;0.90;0.70;;;;;21.00;101905.00;;;;5026676;28;20208;-77
2022/07/28 00:36:41;;;;;;;1.30;0.75;;;;;21.00;101905.00;;;;5037309;28;20192;-76
2022/07/28 00:39:09;;;;;;;2.45;0.82;;;;;21.00;101909.00;;;;5049409;28;20203;-77
2022/07/28 00:41:36;;;;;;;1.42;0.70;;;;;21.00;101912.00;;;;5050014;28;20203;-76
2022/07/28 00:44:06;;;;;;;4.13;0.60;;;;;20.90;101905.00;;;;5049786;28;20230;-77
2022/07/28 00:46:34;;;;;;;2.20;0.68;;;;;21.00;101900.00;;;;5049462;28;20203;-77
2022/07/28 00:49:01;;;;;;;1.50;0.60;;;;;21.00;101896.00;;;;5049488;28;20203;-77
2022/07/28 00:51:29;;;;;;;2.22;0.77;;;;;20.90;101893.00;;;;5041043;28;20208;-77
2022/07/28 00:53:57;;;;;;;4.10;0.63;;;;;20.90;101882.00;;;;5043088;28;20220;-77
2022/07/28 00:56:25;;;;;;;1.92;0.88;;;;;20.90;101886.00;;;;5048846;28;20227;-77
2022/07/28 00:58:53;;;;;;;0.85;0.57;;;;;20.90;101881.00;;;;5049384;28;20207;-77
2022/07/28 01:01:20;;;;;;;1.13;0.70;;;;;20.90;101879.00;;;;5048705;28;20214;-77
2022/07/28 01:03:52;;;;;;;5.38;1.00;;;;;20.80;101887.00;;;;5049003;28;21054;-77
2022/07/28 01:06:42;;;;;;;1.50;0.45;;;;;20.70;101889.00;;;;5048762;28;20202;-77
2022/07/28 01:09:18;;;;;;;1.85;0.82;;;;;20.70;101888.00;;;;5045107;28;20215;-77
2022/07/28 01:11:55;;;;;;;1.92;0.88;;;;;20.70;101888.00;;;;5048349;28;20203;-77
2022/07/28 01:14:36;;;;;;;3.55;0.60;;;;;20.60;101892.00;;;;5048600;28;20665;-77
2022/07/28 01:17:10;;;;;;;1.10;0.55;;;;;20.60;101889.00;;;;5048310;28;20203;-77
2022/07/28 01:19:43;;;;;;;2.38;0.55;;;;;20.60;101887.00;;;;5047454;28;20223;-77
2022/07/28 01:22:13;;;;;;;1.15;0.80;;;;;20.60;101883.00;;;;5048222;28;20231;-77
2022/07/28 01:24:56;;;;;;;2.15;0.90;;;;;20.60;101886.00;;;;5047007;28;20222;-77
2022/07/28 01:27:54;;;;;;;2.78;0.90;;;;;20.40;101877.00;;;;5042050;28;20201;-77
2022/07/28 01:30:41;;;;;;;1.83;0.90;;;;;20.40;101873.00;;;;5056188;28;20188;-77
2022/07/28 01:33:14;;;;;;;1.58;0.63;;;;;20.50;101873.00;;;;5048264;28;20242;-76
2022/07/28 01:35:46;;;;;;;1.08;0.60;;;;;20.50;101865.00;;;;5048424;28;20191;-77
2022/07/28 01:38:15;;;;;;;2.08;0.70;;;;;20.50;101873.00;;;;5047667;28;20203;-77
2022/07/28 01:40:46;;;;;;;3.50;0.90;;;;;20.40;101869.00;;;;5048515;28;20195;-77
2022/07/28 01:43:18;;;;;;;1.45;0.65;;;;;20.40;101863.00;;;;5038702;28;20196;-77
2022/07/28 01:45:47;;;;;;;0.75;0.50;;;;;20.40;101854.00;;;;5047885;28;20192;-78
2022/07/28 01:48:17;;;;;;;1.00;0.60;;;;;20.40;101853.00;;;;5047276;28;20584;-77
2022/07/28 01:50:48;;;;;;;2.50;1.20;;;;;20.30;101849.00;;;;5047519;28;20253;-77
2022/07/28 01:53:17;;;;;;;1.38;0.90;;;;;20.30;101846.00;;;;5047865;28;20211;-77
2022/07/28 01:55:46;;;;;;;1.20;0.77;;;;;20.30;101843.00;;;;5047331;28;20231;-76
2022/07/28 01:58:13;;;;;;;0.70;0.55;;;;;20.30;101845.00;;;;5047952;28;20206;-77
2022/07/28 02:00:42;;;;;;;4.55;1.10;;;;;20.30;101852.00;;;;5046527;28;20210;-77
2022/07/28 02:03:12;;;;;;;1.70;0.90;;;;;20.30;101852.00;;;;5044041;28;20277;-77
2022/07/28 02:05:42;;;;;;;2.13;0.60;;;;;20.20;101848.00;;;;5047544;28;20192;-77
2022/07/28 02:08:11;;;;;;;1.58;0.70;;;;;20.20;101846.00;;;;5047925;28;20191;-77
2022/07/28 02:10:41;;;;;;;1.58;1.05;;;;;20.20;101850.00;;;;5047377;28;20196;-77
2022/07/28 02:13:10;;;;;;;1.58;0.80;;;;;20.20;101856.00;;;;5047709;28;20199;-77
2022/07/28 02:15:39;;;;;;;1.10;0.73;;;;;20.20;101850.00;;;;5046781;28;20199;-77
2022/07/28 02:18:09;;;;;;;4.28;0.90;;;;;20.20;101846.00;;;;5046542;28;20188;-77
2022/07/28 02:20:38;;;;;;;2.20;0.68;;;;;20.20;101850.00;;;;5046783;28;20214;-76
2022/07/28 02:23:07;;;;;;;1.30;0.90;;;;;20.10;101842.00;;;;5047446;28;20226;-76
2022/07/28 02:25:37;;;;;;;5.80;1.73;;;;;20.10;101847.00;;;;5047098;28;20223;-76
2022/07/28 02:28:08;;;;;;;0.90;0.68;;;;;20.10;101847.00;;;;5047399;28;21011;-77
2022/07/28 02:30:41;;;;;;;1.10;0.98;;;;;20.10;101847.00;;;;5047112;28;20200;-76
2022/07/28 02:33:13;;;;;;;1.35;0.80;;;;;20.10;101842.00;;;;5040670;28;20211;-77
2022/07/28 02:35:48;;;;;;;1.73;0.70;;;;;20.00;101839.00;;;;5044132;28;20203;-77
2022/07/28 02:38:20;;;;;;;2.47;1.15;;;;;20.00;101828.00;;;;5043750;28;20563;-77
2022/07/28 02:40:51;;;;;;;3.58;1.10;;;;;20.00;101834.00;;;;5046314;28;20199;-77
2022/07/28 02:43:24;;;;;;;2.20;1.05;;;;;20.00;101837.00;;;;5045569;28;20709;-77
2022/07/28 02:45:55;;;;;;;2.85;0.88;;;;;20.00;101831.00;;;;5046850;28;20199;-77
2022/07/28 02:48:26;;;;;;;1.73;0.98;;;;;20.00;101828.00;;;;5046355;28;20674;-77
2022/07/28 02:50:57;;;;;;;1.42;1.00;;;;;20.00;101829.00;;;;5035856;28;20208;-78
2022/07/28 02:53:25;;;;;;;2.65;1.13;;;;;20.00;101820.00;;;;5031452;28;20740;-77
2022/07/28 02:55:54;;;;;;;2.08;0.80;;;;;20.00;101820.00;;;;5046592;28;20219;-77
2022/07/28 02:58:24;;;;;;;3.22;1.17;;;;;19.90;101824.00;;;;5048227;28;20199;-77
2022/07/28 03:00:53;;;;;;;4.10;1.45;;;;;19.90;101831.00;;;;5050727;28;20206;-77
2022/07/28 03:03:22;;;;;;;2.67;1.08;;;;;19.90;101830.00;;;;5051042;28;20200;-76
2022/07/28 03:05:50;;;;;;;2.20;0.80;;;;;19.90;101835.00;;;;5050926;28;20212;-76
2022/07/28 03:08:19;;;;;;;1.08;0.68;;;;;19.90;101839.00;;;;5036568;28;20212;-77
2022/07/28 03:10:46;;;;;;;3.67;0.80;;;;;19.90;101835.00;;;;5050527;28;20203;-77
2022/07/28 03:13:13;;;;;;;1.35;0.90;;;;;19.90;101834.00;;;;5050409;28;20208;-76
2022/07/28 03:15:41;;;;;;;3.67;1.05;;;;;19.90;101838.00;;;;5050708;28;20195;-77
2022/07/28 03:18:09;;;;;;;1.75;1.02;;;;;19.90;101846.00;;;;5050687;28;20724;-76
2022/07/28 03:20:36;;;;;;;1.83;0.88;;;;;19.90;101844.00;;;;5050503;28;21273;-76
2022/07/28 03:23:04;;;;;;;2.47;1.08;;;;;19.90;101845.00;;;;5050829;28;20685;-76
2022/07/28 03:25:40;;;;;;;3.28;1.05;;;;;19.80;101837.00;;;;5060134;28;20795;-77
2022/07/28 03:28:12;;;;;;;0.88;0.63;;;;;19.80;101838.00;;;;5050237;28;20187;-76
2022/07/28 03:30:47;;;;;;;3.35;1.20;;;;;19.80;101845.00;;;;5050867;28;20198;-76
2022/07/28 03:33:15;;;;;;;1.58;1.00;;;;;19.80;101842.00;;;;5050656;28;20257;-77
2022/07/28 03:35:47;;;;;;;1.70;0.90;;;;;19.80;101841.00;;;;5050663;28;20204;-77
2022/07/28 03:38:18;;;;;;;1.95;1.13;;;;;19.80;101851.00;;;;5049795;28;20196;-77
2022/07/28 03:40:49;;;;;;;2.28;0.93;;;;;19.80;101858.00;;;;5048411;28;20211;-76
2022/07/28 03:43:21;;;;;;;2.35;0.85;;;;;19.80;101861.00;;;;5042791;28;20206;-76
2022/07/28 03:45:49;;;;;;;2.67;1.05;;;;;19.80;101857.00;;;;5050673;28;20223;-77
2022/07/28 03:48:16;;;;;;;1.77;1.00;;;;;19.80;101855.00;;;;5050726;28;20199;-77
2022/07/28 03:50:43;;;;;;;1.83;1.08;;;;;19.80;101856.00;;;;5050241;28;20567;-77
2022/07/28 03:53:17;;;;;;;2.85;1.00;;;;;19.70;101856.00;;;;5049560;28;20219;-77
2022/07/28 03:55:49;;;;;;;2.80;1.00;;;;;19.70;101862.00;;;;5050062;28;20231;-77
2022/07/28 03:58:17;;;;;;;2.50;1.20;;;;;19.70;101860.00;;;;5043586;28;20208;-76
2022/07/28 04:00:44;;;;;;;2.78;1.00;;;;;19.70;101854.00;;;;5048161;28;20203;-76
2022/07/28 04:03:11;;;;;;;2.72;0.80;;;;;19.70;101857.00;;;;5049751;28;20200;-77
2022/07/28 04:05:39;;;;;;;1.77;1.00;;;;;19.70;101858.00;;;;5049980;28;20224;-77
2022/07/28 04:08:06;;;;;;;3.60;1.20;;;;;19.70;101847.00;;;;5047019;28;20192;-77
2022/07/28 04:10:33;;;;;;;1.45;1.10;;;;;19.70;101849.00;;;;5046454;28;20558;-77
2022/07/28 04:13:03;;;;;;;4.00;1.10;;;;;19.70;101839.00;;;;5050318;28;20203;-77
2022/07/28 04:15:31;;;;;;;3.47;1.02;;;;;19.70;101849.00;;;;5041175;28;20566;-76
2022/07/28 04:17:59;;;;;;;1.33;1.00;;;;;19.70;101849.00;;;;5042899;28;20199;-77
2022/07/28 04:20:27;;;;;;;1.92;1.00;;;;;19.70;101857.00;;;;5049082;28;20196;-77
2022/07/28 04:22:55;;;;;;;4.45;0.98;;;;;19.70;101856.00;;;;5051138;28;20200;-77
2022/07/28 04:25:25;;;;;;;2.10;1.02;;;;;19.60;101852.00;;;;5051198;28;20219;-77
2022/07/28 04:27:54;;;;;;;1.98;1.00;;;;;19.60;101850.00;;;;5049722;28;20188;-77
2022/07/28 04:30:24;;;;;;;1.95;1.05;;;;;19.60;101860.00;;;;5048881;28;20704;-77
2022/07/28 04:32:53;;;;;;;6.10;1.40;;;;;19.60;101852.00;;;;5038757;28;20376;-77
2022/07/28 04:35:23;;;;;;;2.60;0.80;;;;;19.60;101853.00;;;;5048669;28;20200;-77
2022/07/28 04:37:53;;;;;;;1.05;0.82;;;;;19.60;101848.00;;;;5049456;28;20245;-77
2022/07/28 04:40:21;;;;;;;1.45;1.00;;;;;19.60;101852.00;;;;5048678;28;20203;-77
2022/07/28 04:42:49;;;;;;;5.80;1.05;;;;;19.60;101852.00;;;;5049537;28;20203;-77
2022/07/28 04:45:16;;;;;;;1.48;1.00;;;;;19.60;101850.00;;;;5048824;28;20215;-77
2022/07/28 04:47:45;;;;;;;1.40;0.82;;;;;19.60;101851.00;;;;5045903;28;20204;-77
2022/07/28 04:50:14;;;;;;;1.10;0.88;;;;;19.60;101855.00;;;;5034241;28;20765;-77
2022/07/28 04:52:42;;;;;;;3.28;1.10;;;;;19.60;101850.00;;;;5046726;28;20206;-77
2022/07/28 04:55:10;;;;;;;1.80;1.13;;;;;19.60;101848.00;;;;5043121;28;20227;-77
2022/07/28 04:57:37;;;;;;;2.95;1.40;;;;;19.60;101855.00;;;;5049339;28;20241;-77
2022/07/28 05:00:11;;;;;;;1.50;1.00;;;;;19.60;101854.00;;;;5048641;28;20198;-77
2022/07/28 05:02:39;;;;;;;1.90;1.10;;;;;19.60;101855.00;;;;5019582;28;20210;-77
2022/07/28 05:05:09;;;;;;;4.93;1.10;;;;;19.60;101854.00;;;;5043904;28;20227;-77
2022/07/28 05:07:36;;;;;;;1.70;0.98;;;;;19.60;101856.00;;;;5046905;28;20199;-77
2022/07/28 05:10:05;;;;;;;2.15;1.00;;;;;19.60;101854.00;;;;5048462;28;20362;-78
2022/07/28 05:12:32;;;;;;;3.15;1.52;;;;;19.60;101854.00;;;;5048382;28;20207;-77
2022/07/28 05:15:00;;;;;;;4.95;1.58;;;;;19.60;101861.00;;;;5047651;28;20223;-77
2022/07/28 05:17:27;;;;;;;3.47;1.45;;;;;19.60;101859.00;;;;5048463;28;20685;-77
2022/07/28 05:19:54;;;;;;;1.42;1.00;;;;;19.70;101864.00;;;;5048361;28;20196;-77
2022/07/28 05:22:23;;;;;;;1.10;0.90;;;;;19.70;101873.00;;;;5047540;28;20191;-77
2022/07/28 05:24:50;;;;;;;4.53;1.10;;;;;19.70;101861.00;;;;5059260;28;20219;-77
2022/07/28 05:27:17;;;;;;;2.60;0.88;;;;;19.70;101861.00;;;;5047807;28;20995;-77
2022/07/28 05:29:45;;;;;;;3.55;1.17;;;;;19.70;101858.00;;;;5048601;28;20191;-77
2022/07/28 05:32:12;;;;;;;3.10;1.23;;;;;19.70;101857.00;;;;5047722;28;20199;-77
2022/07/28 05:34:39;;;;;;;2.25;1.23;;;;;19.80;101862.00;;;;5048166;28;20209;-77
2022/07/28 05:37:07;;;;;;;1.73;1.25;;;;;19.80;101858.00;;;;5048292;28;20229;-77
2022/07/28 05:39:37;;;;;;;2.13;1.17;;;;;19.80;101852.00;;;;5047465;28;20214;-77
2022/07/28 05:42:04;;;;;;;2.63;1.10;;;;;19.90;101861.00;;;;5042433;28;20202;-78
2022/07/28 05:44:31;;;;;;;2.33;1.33;;;;;19.90;101854.00;;;;5047500;28;20203;-77
2022/07/28 05:46:59;;;;;;;2.50;0.90;;;;;20.00;101854.00;;;;5048110;28;20198;-77
2022/07/28 05:49:26;;;;;;;3.13;0.90;;;;;20.10;101854.00;;;;5047918;28;20674;-77
2022/07/28 05:51:53;;;;;;;7.15;1.15;;;;;20.10;101846.00;;;;5047967;28;20188;-77
2022/07/28 05:54:20;;;;;;;3.15;1.15;;;;;20.20;101846.00;;;;5047116;28;20208;-77
2022/07/28 05:56:49;;;;;;;4.22;0.90;;;;;20.20;101853.00;;;;5045854;28;20243;-77
2022/07/28 05:59:17;;;;;;;2.13;0.90;;;;;20.30;101846.00;;;;5035717;28;20203;-77
2022/07/28 06:01:45;;;;;;;1.67;0.95;;;;;20.40;101852.00;;;;5048394;28;20191;-77
2022/07/28 06:04:12;;;;;;;4.20;0.90;;;;;20.50;101860.00;;;;5047602;28;20219;-77
2022/07/28 06:06:40;;;;;;;2.45;1.10;;;;;20.60;101860.00;;;;5047709;28;20215;-78
2022/07/28 06:09:07;;;;;;;1.27;0.90;;;;;20.70;101857.00;;;;5046510;28;20199;-78
2022/07/28 06:11:34;;;;;;;2.35;1.05;;;;;20.70;101862.00;;;;5048639;28;20561;-78
2022/07/28 06:14:03;;;;;;;1.63;1.02;;;;;20.80;101863.00;;;;5042271;28;20690;-78
2022/07/28 06:16:30;;;;;;;5.00;0.90;;;;;20.90;101860.00;;;;5044413;28;20216;-78
2022/07/28 06:18:57;;;;;;;2.60;1.00;;;;;20.90;101875.00;;;;5047561;28;20196;-79
2022/07/28 06:21:25;;;;;;;2.28;1.15;;;;;21.00;101862.00;;;;5047084;28;20199;-78
2022/07/28 06:23:52;;;;;;;2.00;0.95;;;;;21.00;101871.00;;;;5053665;28;20191;-79
2022/07/28 06:26:20;;;;;;;1.88;1.02;;;;;21.10;101861.00;;;;5061250;28;20230;-79
2022/07/28 06:28:47;;;;;;;8.00;1.20;;;;;21.10;101870.00;;;;5063498;28;20747;-79
2022/07/28 06:31:16;;;;;;;1.40;0.68;;;;;21.10;101874.00;;;;5046290;28;20203;-78
2022/07/28 06:33:43;;;;;;;3.97;0.82;;;;;21.20;101874.00;;;;5046409;28;20201;-78
2022/07/28 06:36:10;;;;;;;1.55;0.80;;;;;21.30;101869.00;;;;5046853;28;20195;-78
2022/07/28 06:38:38;;;;;;;1.38;0.95;;;;;21.40;101860.00;;;;5047642;28;20211;-78
2022/07/28 06:41:05;;;;;;;2.92;1.00;;;;;21.50;101860.00;;;;5047282;28;20200;-78
2022/07/28 06:43:32;;;;;;;1.45;0.60;;;;;21.60;101870.00;;;;5046883;28;20207;-78
2022/07/28 06:46:00;;;;;;;2.22;0.70;;;;;21.70;101872.00;;;;5047725;28;20219;-78
2022/07/28 06:48:28;;;;;;;1.50;0.60;;;;;21.70;101862.00;;;;5045875;28;20199;-79
2022/07/28 06:50:58;;;;;;;1.50;0.57;;;;;21.80;101870.00;;;;5043397;28;20208;-78
2022/07/28 06:53:26;;;;;;;2.75;0.65;;;;;22.00;101863.00;;;;5044426;28;20215;-78
2022/07/28 06:55:53;;;;;;;2.10;0.93;;;;;22.00;101862.00;;;;5040400;28;20239;-78
2022/07/28 06:58:21;;;;;;;2.85;0.68;;;;;22.10;101870.00;;;;5047455;28;20196;-78
2022/07/28 07:00:50;;;;;;;1.75;0.77;;;;;22.10;101872.00;;;;5047435;28;20204;-79
2022/07/28 07:03:17;;;;;;;2.70;0.70;;;;;22.20;101862.00;;;;5047392;28;20203;-76
2022/07/28 07:05:46;;;;;;;2.17;0.50;;;;;22.20;101863.00;;;;5043643;28;20227;-76
2022/07/28 07:08:13;;;;;;;1.20;0.50;;;;;22.30;101869.00;;;;5046864;28;20192;-76
2022/07/28 07:10:40;;;;;;;1.40;0.50;;;;;22.30;101872.00;;;;5047376;28;20653;-77
2022/07/28 07:13:07;;;;;;;3.15;0.70;;;;;22.40;101865.00;;;;5047405;28;20230;-78
2022/07/28 07:15:35;;;;;;;1.55;0.63;;;;;22.40;101861.00;;;;5045637;28;20253;-76
2022/07/28 07:18:02;;;;;;;3.40;0.88;;;;;22.40;101861.00;;;;5047716;28;20196;-77
2022/07/28 07:20:29;;;;;;;1.17;0.57;;;;;22.50;101864.00;;;;5046558;28;20204;-77
2022/07/28 07:22:58;;;;;;;1.45;0.80;;;;;22.50;101870.00;;;;5034640;28;20207;-78
2022/07/28 07:25:25;;;;;;;3.13;0.60;;;;;22.50;101858.00;;;;5046167;28;20716;-77
2022/07/28 07:27:53;;;;;;;2.42;0.57;;;;;22.50;101860.00;;;;5047697;28;20674;-77
2022/07/28 07:30:20;;;;;;;0.93;0.40;;;;;22.60;101859.00;;;;5035714;28;20289;-77
2022/07/28 07:32:48;;;;;;;2.30;0.70;;;;;22.60;101861.00;;;;5047867;28;20200;-77
2022/07/28 07:35:15;;;;;;;2.80;0.50;;;;;22.60;101857.00;;;;5046048;28;20199;-77
2022/07/28 07:37:42;;;;;;;2.35;0.60;;;;;22.70;101853.00;;;;5046983;28;20245;-77
2022/07/28 07:40:11;;;;;;;1.05;0.43;;;;;22.70;101850.00;;;;5040112;28;20196;-76
2022/07/28 07:42:38;;;;;;;0.60;0.38;;;;;22.70;101859.00;;;;5046623;28;20670;-77
2022/07/28 07:45:06;;;;;;;1.15;0.50;;;;;22.80;101856.00;;;;5048527;28;20202;-77
2022/07/28 07:47:34;;;;;;;2.75;0.70;;;;;22.80;101850.00;;;;5050778;28;20207;-78
2022/07/28 07:50:01;;;;;;;0.93;0.60;;;;;22.90;101853.00;;;;5049812;28;20199;-77
2022/07/28 07:52:28;;;;;;;0.57;0.40;;;;;22.90;101847.00;;;;5049155;28;21201;-77
2022/07/28 07:54:56;;;;;;;1.13;0.55;;;;;23.00;101845.00;;;;5049681;28;20204;-78
2022/07/28 07:57:24;;;;;;;0.57;0.40;;;;;23.00;101853.00;;;;5047056;28;20203;-77
2022/07/28 07:59:52;;;;;;;1.27;0.43;;;;;23.10;101846.00;;;;5049801;28;20200;-77
2022/07/28 08:02:19;;;;;;;2.10;0.50;;;;;23.20;101855.00;;;;5031334;28;20201;-77
2022/07/28 08:04:46;;;;;;;2.33;0.35;;;;;23.30;101847.00;;;;5043649;28;20207;-78
2022/07/28 08:07:14;;;;;;;1.80;0.68;;;;;23.40;101853.00;;;;5049529;28;20219;-78
2022/07/28 08:09:41;;;;;;;1.58;0.30;;;;;23.60;101847.00;;;;5050025;28;20210;-77
2022/07/28 08:12:09;;;;;;;1.25;0.50;;;;;23.70;101857.00;;;;5049676;28;20206;-76
2022/07/28 08:14:37;;;;;;;1.35;0.40;;;;;23.80;101852.00;;;;5038798;28;20211;-78
2022/07/28 08:17:05;;;;;;;1.35;0.32;;;;;23.90;101843.00;;;;5050003;28;20207;-78
2022/07/28 08:19:32;;;;;;;1.00;0.68;;;;;24.00;101850.00;;;;5049642;28;20253;-77
2022/07/28 08:22:00;;;;;;;1.23;0.70;;;;;24.20;101844.00;;;;5049873;28;20196;-78
2022/07/28 08:24:28;;;;;;;0.82;0.50;;;;;24.30;101847.00;;;;5033387;28;20196;-77
2022/07/28 08:26:55;;;;;;;1.08;0.50;;;;;24.40;101845.00;;;;5049735;28;20230;-77
2022/07/28 08:29:22;;;;;;;0.63;0.28;;;;;24.50;101842.00;;;;5049524;28;20873;-78
2022/07/28 08:31:51;;;;;;;1.02;0.47;;;;;24.60;101838.00;;;;5041846;28;20210;-77
2022/07/28 08:34:18;;;;;;;0.85;0.40;;;;;24.80;101830.00;;;;5049167;28;20219;-78
2022/07/28 08:36:45;;;;;;;0.85;0.40;;;;;24.90;101842.00;;;;5049724;28;20199;-79
2022/07/28 08:39:13;;;;;;;0.85;0.40;;;;;25.00;101839.00;;;;5049136;28;20194;-78
2022/07/28 08:41:48;;;;;;;2.15;0.30;;;;;25.10;101844.00;;;;5049088;28;20219;-77
2022/07/28 08:44:18;;;;;;;2.22;0.50;;;;;25.20;101840.00;;;;5049275;28;20203;-76
2022/07/28 08:46:48;;;;;;;1.42;0.50;;;;;25.30;101843.00;;;;5047931;28;20236;-75
2022/07/28 08:49:17;;;;;;;0.60;0.32;;;;;25.40;101838.00;;;;5040863;28;20227;-76
2022/07/28 08:51:47;;;;;;;1.73;0.50;;;;;25.50;101838.00;;;;5050363;28;20226;-76
2022/07/28 08:54:19;;;;;;;1.58;0.40;;;;;25.60;101848.00;;;;5048991;28;20226;-77
2022/07/28 08:56:48;;;;;;;1.73;0.38;;;;;25.70;101834.00;;;;5048452;28;20235;-77
2022/07/28 08:59:16;;;;;;;1.88;0.50;;;;;25.80;101830.00;;;;5048710;28;20220;-77
2022/07/28 09:01:43;;;;;;;0.77;0.38;;;;;25.90;101842.00;;;;5049115;28;20580;-77
2022/07/28 09:04:12;;;;;;;0.65;0.22;;;;;26.00;101828.00;;;;5047019;28;20678;-78
2022/07/28 09:06:42;;;;;;;2.17;0.68;;;;;26.10;101836.00;;;;5049797;28;20227;-77
2022/07/28 09:09:10;;;;;;;0.40;0.25;;;;;26.10;101834.00;;;;5048958;28;20200;-78
2022/07/28 09:11:38;;;;;;;1.30;0.30;;;;;26.10;101839.00;;;;5049315;28;20596;-78
2022/07/28 09:14:06;;;;;;;0.40;0.20;;;;;26.20;101835.00;;;;5048846;28;20199;-77
2022/07/28 09:16:33;;;;;;;1.23;0.40;;;;;26.20;101835.00;;;;5048522;28;20206;-78
2022/07/28 09:19:01;;;;;;;1.85;0.28;;;;;26.20;101839.00;;;;5048455;28;20199;-76
2022/07/28 09:21:28;;;;;;;0.98;0.30;;;;;26.30;101846.00;;;;5045232;28;20222;-76
2022/07/28 09:23:57;;;;;;;0.40;0.30;;;;;26.30;101839.00;;;;5048361;28;20290;-76
2022/07/28 09:26:24;;;;;;;1.65;0.52;;;;;26.40;101836.00;;;;5034498;28;20225;-76
2022/07/28 09:28:54;;;;;;;0.90;0.50;;;;;26.50;101838.00;;;;5048707;28;20191;-76
2022/07/28 09:31:23;;;;;;;1.15;0.40;;;;;26.60;101837.00;;;;5028218;28;20227;-76
2022/07/28 09:33:55;;;;;;;0.38;0.20;;;;;26.70;101836.00;;;;5028642;28;20200;-77
2022/07/28 09:36:23;;;;;;;0.52;0.20;;;;;26.80;101833.00;;;;5044836;28;20565;-77
2022/07/28 09:38:51;;;;;;;0.90;0.40;;;;;26.90;101835.00;;;;5039011;28;20214;-77
2022/07/28 09:41:20;;;;;;;0.68;0.30;;;;;26.90;101832.00;;;;5047843;28;20752;-78
2022/07/28 09:43:49;;;;;;;0.60;0.30;;;;;27.00;101835.00;;;;5048454;28;20250;-78
2022/07/28 09:46:17;;;;;;;2.90;0.45;;;;;27.10;101822.00;;;;5047266;28;20212;-78
2022/07/28 09:48:56;;;;;;;2.33;0.77;;;;;27.10;101827.00;;;;5049091;28;20253;-79
2022/07/28 09:51:26;;;;;;;0.88;0.32;;;;;27.20;101824.00;;;;5047481;28;20235;-78
2022/07/28 09:54:06;;;;;;;1.80;0.30;;;;;27.30;101830.00;;;;5046821;28;20220;-78
2022/07/28 09:56:35;;;;;;;0.60;0.35;;;;;27.30;101831.00;;;;5045596;28;20219;-78
2022/07/28 09:59:04;;;;;;;0.47;0.30;;;;;27.40;101824.00;;;;5044848;28;20199;-79
2022/07/28 10:01:31;;;;;;;1.00;0.50;;;;;27.50;101823.00;;;;5046325;28;20202;-77
2022/07/28 10:04:00;;;;;;;0.77;0.77;;;;;27.50;101822.00;;;;5039968;28;20207;-78
2022/07/28 10:06:29;;;;;;;0.70;0.30;;;;;27.60;101812.00;;;;5033139;28;20216;-78
2022/07/28 10:08:58;;;;;;;1.83;0.73;;;;;27.70;101816.00;;;;5028993;28;20200;-78
2022/07/28 10:11:26;;;;;;;1.02;0.47;;;;;27.70;101807.00;;;;5047975;28;20204;-78
2022/07/28 10:14:03;;;;;;;0.70;0.43;;;;;27.70;101813.00;;;;5028786;28;20689;-77
2022/07/28 10:16:32;;;;;;;2.47;0.38;;;;;27.80;101809.00;;;;5047655;28;20572;-78
2022/07/28 10:19:01;;;;;;;1.13;0.60;;;;;27.80;101807.00;;;;5047636;28;20763;-78
2022/07/28 10:21:31;;;;;;;0.82;0.40;;;;;27.90;101802.00;;;;5043088;28;20199;-78
2022/07/28 10:24:06;;;;;;;0.70;0.70;;;;;27.90;101799.00;;;;5047646;28;20658;-75
2022/07/28 10:26:38;;;;;;;0.60;0.40;;;;;28.00;101801.00;;;;5037279;28;20223;-76
2022/07/28 10:29:08;;;;;;;0.80;0.30;;;;;28.00;101793.00;;;;5038055;28;20219;-76
2022/07/28 10:31:41;;;;;;;1.23;0.50;;;;;27.90;101793.00;;;;5042622;28;20254;-75
2022/07/28 10:34:14;;;;;;;1.48;0.70;;;;;27.90;101799.00;;;;5028185;28;20235;-76
2022/07/28 10:36:42;;;;;;;2.78;0.93;;;;;27.90;101801.00;;;;5044039;28;20253;-76
2022/07/28 10:39:15;;;;;;;0.52;0.30;;;;;27.80;101792.00;;;;5046871;28;20199;-76
2022/07/28 10:41:43;;;;;;;0.50;0.40;;;;;27.80;101798.00;;;;5047393;28;20200;-76
2022/07/28 10:44:13;;;;;;;1.10;0.50;;;;;27.80;101771.00;;;;5046393;28;20200;-76
2022/07/28 10:46:42;;;;;;;1.88;0.75;;;;;27.80;101789.00;;;;5046340;28;20338;-76
2022/07/28 10:49:10;;;;;;;0.60;0.60;;;;;27.90;101782.00;;;;5047482;28;20229;-75
2022/07/28 10:51:38;;;;;;;0.70;0.43;;;;;27.90;101778.00;;;;5047154;28;20223;-76
2022/07/28 10:54:14;;;;;;;2.47;0.47;;;;;27.90;101770.00;;;;5039625;28;20218;-75
2022/07/28 10:56:52;;;;;;;1.55;0.35;;;;;27.90;101769.00;;;;5047317;28;20642;-76
2022/07/28 10:59:57;;;;;;;0.50;0.45;;;;;27.90;101765.00;;;;5046877;28;20202;-75
2022/07/28 11:02:44;;;;;;;0.63;0.43;;;;;28.00;101759.00;;;;5036199;28;20210;-76
2022/07/28 11:05:30;;;;;;;1.67;0.60;;;;;28.10;101765.00;;;;5043033;28;20196;-77
2022/07/28 11:07:59;;;;;;;0.70;0.40;;;;;28.20;101756.00;;;;5039026;28;21115;-76
2022/07/28 11:10:28;;;;;;;1.52;0.30;;;;;28.30;101754.00;;;;5042609;28;20290;-75
2022/07/28 11:12:57;;;;;;;0.93;0.47;;;;;28.40;101755.00;;;;5046348;28;20196;-76
2022/07/28 11:15:31;;;;;;;2.65;0.38;;;;;28.40;101758.00;;;;5047169;28;20214;-76
2022/07/28 11:18:04;;;;;;;0.90;0.40;;;;;28.50;101755.00;;;;5047017;28;20195;-75
2022/07/28 11:21:05;;;;;;;1.75;0.50;;;;;28.40;101766.00;;;;5040857;28;20216;-76
2022/07/28 11:23:44;;;;;;;1.17;0.38;;;;;28.50;101761.00;;;;5036155;28;20226;-76
2022/07/28 11:26:40;;;;;;;0.77;0.60;;;;;28.50;101760.00;;;;5050256;28;20622;-76
2022/07/28 11:29:21;;;;;;;1.05;0.50;;;;;28.50;101770.00;;;;5050039;28;20200;-76
2022/07/28 11:32:03;;;;;;;0.93;0.45;;;;;28.50;101758.00;;;;5046872;28;20191;-76
2022/07/28 11:35:06;;;;;;;8.13;2.13;;;;;28.50;101756.00;;;;5050365;28;20202;-76
2022/07/28 11:38:13;;;;;;;1.58;0.40;;;;;28.50;101754.00;;;;5041462;28;20884;-76
2022/07/28 11:40:43;;;;;;;1.05;0.43;;;;;28.70;101746.00;;;;5046178;28;20195;-76
2022/07/28 11:43:33;;;;;;;0.40;0.20;;;;;28.60;101740.00;;;;5050333;28;20200;-76
2022/07/28 11:46:35;;;;;;;0.65;0.30;;;;;28.60;101744.00;;;;5050007;28;20683;-76
2022/07/28 11:49:26;;;;;;;0.40;0.22;;;;;28.50;101747.00;;;;5049354;28;20207;-75
2022/07/28 11:52:17;;;;;;;0.73;0.35;;;;;28.50;101754.00;;;;5042851;28;20187;-75
2022/07/28 11:54:50;;;;;;;0.90;0.40;;;;;28.60;101740.00;;;;5057231;28;20215;-76
2022/07/28 11:57:20;;;;;;;1.23;0.50;;;;;28.60;101740.00;;;;5050227;28;20207;-75
2022/07/28 11:59:49;;;;;;;0.52;0.30;;;;;28.60;101735.00;;;;5050311;28;20196;-76
2022/07/28 12:02:18;;;;;;;0.50;0.30;;;;;28.70;101725.00;;;;5048456;28;20187;-76
2022/07/28 12:04:56;;;;;;;0.40;0.15;;;;;28.70;101729.00;;;;5049757;28;20200;-75
2022/07/28 12:07:30;;;;;;;1.42;0.38;;;;;28.80;101722.00;;;;5049356;28;20218;-75
2022/07/28 12:09:58;;;;;;;0.70;0.30;;;;;28.90;101723.00;;;;5049776;28;20198;-74
2022/07/28 12:12:27;;;;;;;0.73;0.40;;;;;28.90;101724.00;;;;5033849;28;21004;-75
2022/07/28 12:14:55;;;;;;;0.50;0.30;;;;;28.90;101724.00;;;;5039385;28;20199;-75
2022/07/28 12:17:23;;;;;;;0.60;0.38;;;;;28.90;101730.00;;;;5049858;28;20218;-75
2022/07/28 12:19:52;;;;;;;0.40;0.30;;;;;28.90;101720.00;;;;5049661;28;20286;-75
2022/07/28 12:22:19;;;;;;;1.52;0.50;;;;;28.90;101731.00;;;;5048788;28;20200;-75
2022/07/28 12:24:46;;;;;;;1.23;0.50;;;;;28.80;101725.00;;;;5049003;28;21007;-76